RJTO(METAR)
05/21 17:00
METAR RJTO 210800Z 20013KT 9999 FEW007 SCT015 BKN030 19/18 Q1000 RMK
2ST007 3CU015 5CU030 A2953=
戻る
トップページへ戻る
IMOC Co,.Ltd.